sensor_id;sensor_type;location;lat;lon;timestamp;temperature;humidity
60353;DHT22;46196;52.970;6.954;2023-07-24T00:01:19;17.70;99.90
60353;DHT22;46196;52.970;6.954;2023-07-24T00:03:45;16.80;99.90
60353;DHT22;46196;52.970;6.954;2023-07-24T00:06:11;17.30;99.90
60353;DHT22;46196;52.970;6.954;2023-07-24T00:08:38;17.30;99.90
60353;DHT22;46196;52.970;6.954;2023-07-24T00:11:07;17.10;99.90
60353;DHT22;46196;52.970;6.954;2023-07-24T00:13:33;17.30;99.90
60353;DHT22;46196;52.970;6.954;2023-07-24T00:15:58;17.30;99.90
60353;DHT22;46196;52.970;6.954;2023-07-24T00:18:24;17.20;99.90
60353;DHT22;46196;52.970;6.954;2023-07-24T00:20:50;16.50;99.90
60353;DHT22;46196;52.970;6.954;2023-07-24T00:23:15;19.30;99.90
60353;DHT22;46196;52.970;6.954;2023-07-24T00:25:41;17.80;99.90
60353;DHT22;46196;52.970;6.954;2023-07-24T00:28:07;17.30;99.90
60353;DHT22;46196;52.970;6.954;2023-07-24T00:30:32;16.80;99.90
60353;DHT22;46196;52.970;6.954;2023-07-24T00:32:58;18.20;99.90
60353;DHT22;46196;52.970;6.954;2023-07-24T00:35:25;17.30;99.90
60353;DHT22;46196;52.970;6.954;2023-07-24T00:37:51;17.40;99.90
60353;DHT22;46196;52.970;6.954;2023-07-24T00:40:17;17.20;99.90
60353;DHT22;46196;52.970;6.954;2023-07-24T00:42:49;16.50;99.90
60353;DHT22;46196;52.970;6.954;2023-07-24T00:45:15;17.10;99.90
60353;DHT22;46196;52.970;6.954;2023-07-24T00:47:42;16.80;99.90
60353;DHT22;46196;52.970;6.954;2023-07-24T00:50:09;17.40;99.90
60353;DHT22;46196;52.970;6.954;2023-07-24T00:52:37;17.70;99.90
60353;DHT22;46196;52.970;6.954;2023-07-24T00:55:03;17.30;99.90
60353;DHT22;46196;52.970;6.954;2023-07-24T00:57:29;17.60;99.90
60353;DHT22;46196;52.970;6.954;2023-07-24T00:59:55;17.30;99.90
60353;DHT22;46196;52.970;6.954;2023-07-24T01:02:21;16.70;99.90
60353;DHT22;46196;52.970;6.954;2023-07-24T01:04:47;17.20;99.90
60353;DHT22;46196;52.970;6.954;2023-07-24T01:07:13;16.80;99.90
60353;DHT22;46196;52.970;6.954;2023-07-24T01:09:39;17.20;99.90
60353;DHT22;46196;52.970;6.954;2023-07-24T01:12:13;17.10;99.90
60353;DHT22;46196;52.970;6.954;2023-07-24T01:14:47;17.10;99.90
60353;DHT22;46196;52.970;6.954;2023-07-24T01:17:15;17.10;99.90
60353;DHT22;46196;52.970;6.954;2023-07-24T01:19:49;15.90;99.90
60353;DHT22;46196;52.970;6.954;2023-07-24T01:25:03;17.10;99.90
60353;DHT22;46196;52.970;6.954;2023-07-24T01:27:30;17.50;99.90
60353;DHT22;46196;52.970;6.954;2023-07-24T01:29:59;16.50;99.90
60353;DHT22;46196;52.970;6.954;2023-07-24T01:32:24;16.60;99.90
60353;DHT22;46196;52.970;6.954;2023-07-24T01:34:51;16.10;99.90
60353;DHT22;46196;52.970;6.954;2023-07-24T01:37:20;16.90;99.90
60353;DHT22;46196;52.970;6.954;2023-07-24T01:39:46;16.90;99.90
60353;DHT22;46196;52.970;6.954;2023-07-24T01:42:13;16.70;99.90
60353;DHT22;46196;52.970;6.954;2023-07-24T01:44:39;16.80;99.90
60353;DHT22;46196;52.970;6.954;2023-07-24T01:47:05;16.80;99.90
60353;DHT22;46196;52.970;6.954;2023-07-24T01:49:31;16.50;99.90
60353;DHT22;46196;52.970;6.954;2023-07-24T01:51:56;16.60;99.90
60353;DHT22;46196;52.970;6.954;2023-07-24T01:54:23;16.70;99.90
60353;DHT22;46196;52.970;6.954;2023-07-24T01:56:49;16.70;99.90
60353;DHT22;46196;52.970;6.954;2023-07-24T01:59:14;17.50;99.90
60353;DHT22;46196;52.970;6.954;2023-07-24T02:01:40;19.10;99.90
60353;DHT22;46196;52.970;6.954;2023-07-24T02:04:06;16.10;99.90
60353;DHT22;46196;52.970;6.954;2023-07-24T02:06:32;16.60;99.90
60353;DHT22;46196;52.970;6.954;2023-07-24T02:08:57;15.70;99.90
60353;DHT22;46196;52.970;6.954;2023-07-24T02:11:23;16.60;99.90
60353;DHT22;46196;52.970;6.954;2023-07-24T02:13:49;16.60;99.90
60353;DHT22;46196;52.970;6.954;2023-07-24T02:16:15;16.60;99.90
60353;DHT22;46196;52.970;6.954;2023-07-24T02:18:42;16.60;99.90
60353;DHT22;46196;52.970;6.954;2023-07-24T02:21:08;18.00;99.90
60353;DHT22;46196;52.970;6.954;2023-07-24T02:23:34;16.00;99.90
60353;DHT22;46196;52.970;6.954;2023-07-24T02:26:00;19.80;99.90
60353;DHT22;46196;52.970;6.954;2023-07-24T02:28:26;16.80;99.90
60353;DHT22;46196;52.970;6.954;2023-07-24T02:30:52;17.60;99.90
60353;DHT22;46196;52.970;6.954;2023-07-24T02:33:22;16.60;99.90
60353;DHT22;46196;52.970;6.954;2023-07-24T02:35:49;16.50;99.90
60353;DHT22;46196;52.970;6.954;2023-07-24T02:38:16;16.90;99.90
60353;DHT22;46196;52.970;6.954;2023-07-24T02:40:43;16.40;99.90
60353;DHT22;46196;52.970;6.954;2023-07-24T02:43:09;16.90;99.90
60353;DHT22;46196;52.970;6.954;2023-07-24T02:45:36;16.70;99.90
60353;DHT22;46196;52.970;6.954;2023-07-24T02:48:02;16.40;99.90
60353;DHT22;46196;52.970;6.954;2023-07-24T02:50:28;17.40;99.90
60353;DHT22;46196;52.970;6.954;2023-07-24T02:52:54;16.30;99.90
60353;DHT22;46196;52.970;6.954;2023-07-24T02:55:19;16.50;99.90
60353;DHT22;46196;52.970;6.954;2023-07-24T02:57:45;16.50;99.90
60353;DHT22;46196;52.970;6.954;2023-07-24T03:00:11;16.50;99.90
60353;DHT22;46196;52.970;6.954;2023-07-24T03:02:38;16.90;99.90
60353;DHT22;46196;52.970;6.954;2023-07-24T03:05:04;15.80;99.90
60353;DHT22;46196;52.970;6.954;2023-07-24T03:07:29;16.30;99.90
60353;DHT22;46196;52.970;6.954;2023-07-24T03:09:55;16.50;99.90
60353;DHT22;46196;52.970;6.954;2023-07-24T03:12:21;16.50;99.90
60353;DHT22;46196;52.970;6.954;2023-07-24T03:14:47;16.30;99.90
60353;DHT22;46196;52.970;6.954;2023-07-24T03:17:13;16.80;99.90
60353;DHT22;46196;52.970;6.954;2023-07-24T03:19:40;16.60;99.90
60353;DHT22;46196;52.970;6.954;2023-07-24T03:22:05;16.70;99.90
60353;DHT22;46196;52.970;6.954;2023-07-24T03:24:31;17.10;99.90
60353;DHT22;46196;52.970;6.954;2023-07-24T03:26:57;16.50;99.90
60353;DHT22;46196;52.970;6.954;2023-07-24T03:29:22;16.70;99.90
60353;DHT22;46196;52.970;6.954;2023-07-24T03:31:48;16.70;99.90
60353;DHT22;46196;52.970;6.954;2023-07-24T03:34:14;16.40;99.90
60353;DHT22;46196;52.970;6.954;2023-07-24T03:36:39;16.40;99.90
60353;DHT22;46196;52.970;6.954;2023-07-24T03:39:09;16.40;99.90
60353;DHT22;46196;52.970;6.954;2023-07-24T03:41:35;16.90;99.90
60353;DHT22;46196;52.970;6.954;2023-07-24T03:44:01;16.50;99.90
60353;DHT22;46196;52.970;6.954;2023-07-24T03:46:26;16.40;99.90
60353;DHT22;46196;52.970;6.954;2023-07-24T03:48:53;16.50;99.90
60353;DHT22;46196;52.970;6.954;2023-07-24T03:51:20;17.60;99.90
60353;DHT22;46196;52.970;6.954;2023-07-24T03:53:46;16.60;99.90
60353;DHT22;46196;52.970;6.954;2023-07-24T03:56:12;15.40;99.90
60353;DHT22;46196;52.970;6.954;2023-07-24T03:58:38;16.40;99.90
60353;DHT22;46196;52.970;6.954;2023-07-24T04:01:05;15.10;99.90
60353;DHT22;46196;52.970;6.954;2023-07-24T04:03:31;16.40;99.90
60353;DHT22;46196;52.970;6.954;2023-07-24T04:05:56;15.50;99.90
60353;DHT22;46196;52.970;6.954;2023-07-24T04:08:23;16.30;99.90
60353;DHT22;46196;52.970;6.954;2023-07-24T04:10:48;17.30;99.90
60353;DHT22;46196;52.970;6.954;2023-07-24T04:13:14;16.20;99.90
60353;DHT22;46196;52.970;6.954;2023-07-24T04:15:40;16.60;99.90
60353;DHT22;46196;52.970;6.954;2023-07-24T04:18:05;16.60;99.90
60353;DHT22;46196;52.970;6.954;2023-07-24T04:20:31;16.40;99.90
60353;DHT22;46196;52.970;6.954;2023-07-24T04:22:57;16.50;99.90
60353;DHT22;46196;52.970;6.954;2023-07-24T04:25:23;16.30;99.90
60353;DHT22;46196;52.970;6.954;2023-07-24T04:27:49;16.50;99.90
60353;DHT22;46196;52.970;6.954;2023-07-24T04:30:15;17.20;99.90
60353;DHT22;46196;52.970;6.954;2023-07-24T04:32:40;17.90;99.90
60353;DHT22;46196;52.970;6.954;2023-07-24T04:35:06;15.40;99.90
60353;DHT22;46196;52.970;6.954;2023-07-24T04:37:32;16.60;99.90
60353;DHT22;46196;52.970;6.954;2023-07-24T04:39:58;16.60;99.90
60353;DHT22;46196;52.970;6.954;2023-07-24T04:42:24;16.70;99.90
60353;DHT22;46196;52.970;6.954;2023-07-24T04:44:49;16.50;99.90
60353;DHT22;46196;52.970;6.954;2023-07-24T04:47:17;16.50;99.90
60353;DHT22;46196;52.970;6.954;2023-07-24T04:49:42;16.50;99.90
60353;DHT22;46196;52.970;6.954;2023-07-24T04:52:08;16.60;99.90
60353;DHT22;46196;52.970;6.954;2023-07-24T04:54:34;16.50;99.90
60353;DHT22;46196;52.970;6.954;2023-07-24T04:56:59;16.60;99.90
60353;DHT22;46196;52.970;6.954;2023-07-24T04:59:28;16.40;99.90
60353;DHT22;46196;52.970;6.954;2023-07-24T05:01:54;16.70;99.90
60353;DHT22;46196;52.970;6.954;2023-07-24T05:04:19;15.80;99.90
60353;DHT22;46196;52.970;6.954;2023-07-24T05:06:45;17.10;99.90
60353;DHT22;46196;52.970;6.954;2023-07-24T05:09:10;16.60;99.90
60353;DHT22;46196;52.970;6.954;2023-07-24T05:11:36;16.60;99.90
60353;DHT22;46196;52.970;6.954;2023-07-24T05:14:02;17.00;99.90
60353;DHT22;46196;52.970;6.954;2023-07-24T05:16:27;17.60;99.90
60353;DHT22;46196;52.970;6.954;2023-07-24T05:18:53;16.60;99.90
60353;DHT22;46196;52.970;6.954;2023-07-24T05:21:19;16.60;99.90
60353;DHT22;46196;52.970;6.954;2023-07-24T05:23:44;16.40;99.90
60353;DHT22;46196;52.970;6.954;2023-07-24T05:26:10;16.70;99.90
60353;DHT22;46196;52.970;6.954;2023-07-24T05:28:36;16.80;99.90
60353;DHT22;46196;52.970;6.954;2023-07-24T05:31:05;16.80;99.90
60353;DHT22;46196;52.970;6.954;2023-07-24T05:33:31;16.60;99.90
60353;DHT22;46196;52.970;6.954;2023-07-24T05:35:58;16.60;99.90
60353;DHT22;46196;52.970;6.954;2023-07-24T05:38:24;16.50;99.90
60353;DHT22;46196;52.970;6.954;2023-07-24T05:41:01;18.10;99.90
60353;DHT22;46196;52.970;6.954;2023-07-24T05:43:28;16.10;99.90
60353;DHT22;46196;52.970;6.954;2023-07-24T05:45:55;16.70;99.90
60353;DHT22;46196;52.970;6.954;2023-07-24T05:48:22;16.50;99.90
60353;DHT22;46196;52.970;6.954;2023-07-24T05:50:48;17.90;99.90
60353;DHT22;46196;52.970;6.954;2023-07-24T05:53:14;16.70;99.90
60353;DHT22;46196;52.970;6.954;2023-07-24T05:55:40;16.90;99.90
60353;DHT22;46196;52.970;6.954;2023-07-24T05:58:08;16.80;99.90
60353;DHT22;46196;52.970;6.954;2023-07-24T06:00:34;16.60;99.90
60353;DHT22;46196;52.970;6.954;2023-07-24T06:02:59;16.90;99.90
60353;DHT22;46196;52.970;6.954;2023-07-24T06:07:51;17.10;99.90
60353;DHT22;46196;52.970;6.954;2023-07-24T06:10:17;16.90;99.90
60353;DHT22;46196;52.970;6.954;2023-07-24T06:12:42;17.00;99.90
60353;DHT22;46196;52.970;6.954;2023-07-24T06:15:08;17.10;99.90
60353;DHT22;46196;52.970;6.954;2023-07-24T06:17:34;18.20;99.90
60353;DHT22;46196;52.970;6.954;2023-07-24T06:20:00;17.20;99.90
60353;DHT22;46196;52.970;6.954;2023-07-24T06:22:25;17.30;99.90
60353;DHT22;46196;52.970;6.954;2023-07-24T06:24:51;17.20;99.90
60353;DHT22;46196;52.970;6.954;2023-07-24T06:27:17;17.40;99.90
60353;DHT22;46196;52.970;6.954;2023-07-24T06:29:42;17.00;99.90
60353;DHT22;46196;52.970;6.954;2023-07-24T06:32:08;17.40;99.90
60353;DHT22;46196;52.970;6.954;2023-07-24T06:34:34;17.40;99.90
60353;DHT22;46196;52.970;6.954;2023-07-24T06:37:00;16.80;99.90
60353;DHT22;46196;52.970;6.954;2023-07-24T06:39:26;16.80;99.90
60353;DHT22;46196;52.970;6.954;2023-07-24T06:41:54;17.40;99.90
60353;DHT22;46196;52.970;6.954;2023-07-24T06:44:20;16.60;99.90
60353;DHT22;46196;52.970;6.954;2023-07-24T06:46:46;17.40;99.90
60353;DHT22;46196;52.970;6.954;2023-07-24T06:49:12;16.70;99.90
60353;DHT22;46196;52.970;6.954;2023-07-24T06:51:38;17.60;99.90
60353;DHT22;46196;52.970;6.954;2023-07-24T06:54:06;18.60;99.90
60353;DHT22;46196;52.970;6.954;2023-07-24T06:56:32;18.30;99.90
60353;DHT22;46196;52.970;6.954;2023-07-24T06:58:58;18.00;99.90
60353;DHT22;46196;52.970;6.954;2023-07-24T07:01:24;18.80;99.90
60353;DHT22;46196;52.970;6.954;2023-07-24T07:03:50;18.10;99.90
60353;DHT22;46196;52.970;6.954;2023-07-24T07:06:16;19.00;99.90
60353;DHT22;46196;52.970;6.954;2023-07-24T07:08:42;18.50;99.90
60353;DHT22;46196;52.970;6.954;2023-07-24T07:11:07;18.60;99.90
60353;DHT22;46196;52.970;6.954;2023-07-24T07:13:33;18.90;99.90
60353;DHT22;46196;52.970;6.954;2023-07-24T07:15:59;18.30;99.90
60353;DHT22;46196;52.970;6.954;2023-07-24T07:18:24;18.30;99.90
60353;DHT22;46196;52.970;6.954;2023-07-24T07:20:52;18.60;99.90
60353;DHT22;46196;52.970;6.954;2023-07-24T07:23:18;19.00;99.90
60353;DHT22;46196;52.970;6.954;2023-07-24T07:25:44;19.10;99.90
60353;DHT22;46196;52.970;6.954;2023-07-24T07:28:14;18.70;99.90
60353;DHT22;46196;52.970;6.954;2023-07-24T07:30:41;18.90;99.90
60353;DHT22;46196;52.970;6.954;2023-07-24T07:33:07;20.00;99.90
60353;DHT22;46196;52.970;6.954;2023-07-24T07:35:33;18.60;99.90
60353;DHT22;46196;52.970;6.954;2023-07-24T07:37:59;18.80;99.90
60353;DHT22;46196;52.970;6.954;2023-07-24T07:40:25;19.00;99.90
60353;DHT22;46196;52.970;6.954;2023-07-24T07:42:55;18.80;99.90
60353;DHT22;46196;52.970;6.954;2023-07-24T07:45:22;18.80;99.90
60353;DHT22;46196;52.970;6.954;2023-07-24T07:47:48;18.60;99.90
60353;DHT22;46196;52.970;6.954;2023-07-24T07:50:14;19.20;99.90
60353;DHT22;46196;52.970;6.954;2023-07-24T07:52:40;19.00;99.90
60353;DHT22;46196;52.970;6.954;2023-07-24T07:55:05;19.50;99.90
60353;DHT22;46196;52.970;6.954;2023-07-24T07:57:35;18.80;99.90
60353;DHT22;46196;52.970;6.954;2023-07-24T08:00:02;19.30;99.90
60353;DHT22;46196;52.970;6.954;2023-07-24T08:02:28;19.50;99.90
60353;DHT22;46196;52.970;6.954;2023-07-24T08:04:54;17.40;99.90
60353;DHT22;46196;52.970;6.954;2023-07-24T08:07:19;19.40;99.90
60353;DHT22;46196;52.970;6.954;2023-07-24T08:09:46;19.70;99.90
60353;DHT22;46196;52.970;6.954;2023-07-24T08:12:11;19.60;99.90
60353;DHT22;46196;52.970;6.954;2023-07-24T08:14:37;19.50;99.90
60353;DHT22;46196;52.970;6.954;2023-07-24T08:17:03;19.50;99.90
60353;DHT22;46196;52.970;6.954;2023-07-24T08:19:29;19.40;99.90
60353;DHT22;46196;52.970;6.954;2023-07-24T08:21:55;19.10;99.90
60353;DHT22;46196;52.970;6.954;2023-07-24T08:24:21;19.60;99.90
60353;DHT22;46196;52.970;6.954;2023-07-24T08:26:46;20.00;99.90
60353;DHT22;46196;52.970;6.954;2023-07-24T08:29:12;19.60;99.90
60353;DHT22;46196;52.970;6.954;2023-07-24T08:31:38;19.80;99.90
60353;DHT22;46196;52.970;6.954;2023-07-24T08:34:04;20.00;99.90
60353;DHT22;46196;52.970;6.954;2023-07-24T08:36:29;18.80;99.90
60353;DHT22;46196;52.970;6.954;2023-07-24T08:38:55;20.80;99.90
60353;DHT22;46196;52.970;6.954;2023-07-24T08:41:21;19.60;99.90
60353;DHT22;46196;52.970;6.954;2023-07-24T08:43:46;20.90;99.90
60353;DHT22;46196;52.970;6.954;2023-07-24T08:46:12;21.20;99.90
60353;DHT22;46196;52.970;6.954;2023-07-24T08:48:40;21.20;99.90
60353;DHT22;46196;52.970;6.954;2023-07-24T08:51:13;22.30;99.90
60353;DHT22;46196;52.970;6.954;2023-07-24T08:53:40;21.80;99.90
60353;DHT22;46196;52.970;6.954;2023-07-24T08:56:07;23.10;99.90
60353;DHT22;46196;52.970;6.954;2023-07-24T08:58:33;22.50;99.90
60353;DHT22;46196;52.970;6.954;2023-07-24T09:01:03;22.00;99.90
60353;DHT22;46196;52.970;6.954;2023-07-24T09:03:31;22.60;99.90
60353;DHT22;46196;52.970;6.954;2023-07-24T09:05:57;22.40;99.90
60353;DHT22;46196;52.970;6.954;2023-07-24T09:10:56;21.90;99.90
60353;DHT22;46196;52.970;6.954;2023-07-24T09:13:21;21.80;99.90
60353;DHT22;46196;52.970;6.954;2023-07-24T09:15:52;21.70;99.90
60353;DHT22;46196;52.970;6.954;2023-07-24T09:18:40;21.40;99.90
60353;DHT22;46196;52.970;6.954;2023-07-24T09:21:06;21.50;99.90
60353;DHT22;46196;52.970;6.954;2023-07-24T09:23:32;21.50;99.90
60353;DHT22;46196;52.970;6.954;2023-07-24T09:25:58;21.50;99.90
60353;DHT22;46196;52.970;6.954;2023-07-24T09:28:24;21.80;99.90
60353;DHT22;46196;52.970;6.954;2023-07-24T09:30:55;21.80;99.90
60353;DHT22;46196;52.970;6.954;2023-07-24T09:33:41;21.60;99.90
60353;DHT22;46196;52.970;6.954;2023-07-24T09:36:09;22.00;99.90
60353;DHT22;46196;52.970;6.954;2023-07-24T09:38:40;22.40;99.90
60353;DHT22;46196;52.970;6.954;2023-07-24T09:41:06;21.90;99.90
60353;DHT22;46196;52.970;6.954;2023-07-24T09:43:32;22.00;99.90
60353;DHT22;46196;52.970;6.954;2023-07-24T09:45:58;22.20;99.90
60353;DHT22;46196;52.970;6.954;2023-07-24T09:48:26;22.00;99.90
60353;DHT22;46196;52.970;6.954;2023-07-24T09:50:54;22.70;99.90
60353;DHT22;46196;52.970;6.954;2023-07-24T09:53:25;22.70;99.90
60353;DHT22;46196;52.970;6.954;2023-07-24T09:56:02;22.70;99.90
60353;DHT22;46196;52.970;6.954;2023-07-24T09:58:28;23.10;99.90
60353;DHT22;46196;52.970;6.954;2023-07-24T10:00:55;22.90;99.90
60353;DHT22;46196;52.970;6.954;2023-07-24T10:03:22;23.90;99.90
60353;DHT22;46196;52.970;6.954;2023-07-24T10:05:48;23.10;99.90
60353;DHT22;46196;52.970;6.954;2023-07-24T10:08:15;23.10;99.90
60353;DHT22;46196;52.970;6.954;2023-07-24T10:10:42;22.80;99.90
60353;DHT22;46196;52.970;6.954;2023-07-24T10:13:09;22.50;99.90
60353;DHT22;46196;52.970;6.954;2023-07-24T10:15:43;22.30;99.90
60353;DHT22;46196;52.970;6.954;2023-07-24T10:18:09;22.40;99.90
60353;DHT22;46196;52.970;6.954;2023-07-24T10:20:36;22.10;99.90
60353;DHT22;46196;52.970;6.954;2023-07-24T10:23:05;22.30;99.90
60353;DHT22;46196;52.970;6.954;2023-07-24T10:25:35;22.10;99.90
60353;DHT22;46196;52.970;6.954;2023-07-24T10:28:05;22.00;99.90
60353;DHT22;46196;52.970;6.954;2023-07-24T10:30:34;21.80;99.90
60353;DHT22;46196;52.970;6.954;2023-07-24T10:33:08;21.60;99.90
60353;DHT22;46196;52.970;6.954;2023-07-24T10:35:38;21.90;99.90
60353;DHT22;46196;52.970;6.954;2023-07-24T10:38:04;21.90;99.90
60353;DHT22;46196;52.970;6.954;2023-07-24T10:40:30;21.90;99.90
60353;DHT22;46196;52.970;6.954;2023-07-24T10:43:07;21.90;99.90
60353;DHT22;46196;52.970;6.954;2023-07-24T10:48:17;22.30;99.90
60353;DHT22;46196;52.970;6.954;2023-07-24T10:50:46;22.50;99.90
60353;DHT22;46196;52.970;6.954;2023-07-24T10:53:18;24.20;99.90
60353;DHT22;46196;52.970;6.954;2023-07-24T10:55:45;22.50;99.90
60353;DHT22;46196;52.970;6.954;2023-07-24T10:58:13;22.00;99.90
60353;DHT22;46196;52.970;6.954;2023-07-24T11:00:40;22.60;99.90
60353;DHT22;46196;52.970;6.954;2023-07-24T11:03:10;22.60;99.90
60353;DHT22;46196;52.970;6.954;2023-07-24T11:05:42;22.60;99.90
60353;DHT22;46196;52.970;6.954;2023-07-24T11:10:51;22.60;99.90
60353;DHT22;46196;52.970;6.954;2023-07-24T11:13:18;22.90;99.90
60353;DHT22;46196;52.970;6.954;2023-07-24T11:15:44;23.00;99.90
60353;DHT22;46196;52.970;6.954;2023-07-24T11:18:10;23.20;99.90
60353;DHT22;46196;52.970;6.954;2023-07-24T11:20:57;23.20;99.90
60353;DHT22;46196;52.970;6.954;2023-07-24T11:23:23;23.20;99.90
60353;DHT22;46196;52.970;6.954;2023-07-24T11:25:53;23.30;99.90
60353;DHT22;46196;52.970;6.954;2023-07-24T11:28:20;23.40;99.90
60353;DHT22;46196;52.970;6.954;2023-07-24T11:30:45;22.90;99.90
60353;DHT22;46196;52.970;6.954;2023-07-24T11:33:14;23.90;99.90
60353;DHT22;46196;52.970;6.954;2023-07-24T11:35:40;23.50;99.90
60353;DHT22;46196;52.970;6.954;2023-07-24T11:38:09;23.90;99.90
60353;DHT22;46196;52.970;6.954;2023-07-24T11:40:40;23.50;99.90
60353;DHT22;46196;52.970;6.954;2023-07-24T11:43:19;23.60;99.90
60353;DHT22;46196;52.970;6.954;2023-07-24T11:45:45;23.30;99.90
60353;DHT22;46196;52.970;6.954;2023-07-24T11:48:14;23.30;99.90
60353;DHT22;46196;52.970;6.954;2023-07-24T11:50:51;23.30;99.90
60353;DHT22;46196;52.970;6.954;2023-07-24T11:53:30;23.30;99.90
60353;DHT22;46196;52.970;6.954;2023-07-24T11:56:00;23.30;99.90
60353;DHT22;46196;52.970;6.954;2023-07-24T11:58:29;23.20;99.90
60353;DHT22;46196;52.970;6.954;2023-07-24T12:00:55;23.10;99.90
60353;DHT22;46196;52.970;6.954;2023-07-24T12:03:23;23.00;99.90
60353;DHT22;46196;52.970;6.954;2023-07-24T12:05:49;23.00;99.90
60353;DHT22;46196;52.970;6.954;2023-07-24T12:08:16;22.90;99.90
60353;DHT22;46196;52.970;6.954;2023-07-24T12:10:43;22.90;99.90
60353;DHT22;46196;52.970;6.954;2023-07-24T12:13:09;22.80;99.90
60353;DHT22;46196;52.970;6.954;2023-07-24T12:15:35;22.80;99.90
60353;DHT22;46196;52.970;6.954;2023-07-24T12:18:02;22.20;99.90
60353;DHT22;46196;52.970;6.954;2023-07-24T12:20:28;22.60;99.90
60353;DHT22;46196;52.970;6.954;2023-07-24T12:22:54;22.60;99.90
60353;DHT22;46196;52.970;6.954;2023-07-24T12:25:20;22.70;99.90
60353;DHT22;46196;52.970;6.954;2023-07-24T12:27:46;22.80;99.90
60353;DHT22;46196;52.970;6.954;2023-07-24T12:30:12;22.90;99.90
60353;DHT22;46196;52.970;6.954;2023-07-24T12:32:38;22.90;99.90
60353;DHT22;46196;52.970;6.954;2023-07-24T12:35:04;23.00;99.90
60353;DHT22;46196;52.970;6.954;2023-07-24T12:37:30;23.00;99.90
60353;DHT22;46196;52.970;6.954;2023-07-24T12:39:56;23.00;99.90
60353;DHT22;46196;52.970;6.954;2023-07-24T12:42:22;23.00;99.90
60353;DHT22;46196;52.970;6.954;2023-07-24T12:44:49;23.70;99.90
60353;DHT22;46196;52.970;6.954;2023-07-24T12:47:15;23.30;99.90
60353;DHT22;46196;52.970;6.954;2023-07-24T12:49:41;24.00;99.90
60353;DHT22;46196;52.970;6.954;2023-07-24T12:52:07;23.40;99.90
60353;DHT22;46196;52.970;6.954;2023-07-24T12:54:33;23.50;99.90
60353;DHT22;46196;52.970;6.954;2023-07-24T12:57:00;23.50;99.90
60353;DHT22;46196;52.970;6.954;2023-07-24T12:59:27;23.50;99.90
60353;DHT22;46196;52.970;6.954;2023-07-24T13:01:52;22.70;99.90
60353;DHT22;46196;52.970;6.954;2023-07-24T13:04:19;23.30;99.90
60353;DHT22;46196;52.970;6.954;2023-07-24T13:06:45;23.50;99.90
60353;DHT22;46196;52.970;6.954;2023-07-24T13:09:11;23.70;99.90
60353;DHT22;46196;52.970;6.954;2023-07-24T13:11:37;24.00;99.90
60353;DHT22;46196;52.970;6.954;2023-07-24T13:14:03;24.10;99.90
60353;DHT22;46196;52.970;6.954;2023-07-24T13:16:28;24.30;99.90
60353;DHT22;46196;52.970;6.954;2023-07-24T13:18:54;24.20;99.90
60353;DHT22;46196;52.970;6.954;2023-07-24T13:21:20;24.00;99.90
60353;DHT22;46196;52.970;6.954;2023-07-24T13:23:45;23.80;99.90
60353;DHT22;46196;52.970;6.954;2023-07-24T13:26:12;23.60;99.90
60353;DHT22;46196;52.970;6.954;2023-07-24T13:28:39;23.40;99.90
60353;DHT22;46196;52.970;6.954;2023-07-24T13:31:16;23.10;99.90
60353;DHT22;46196;52.970;6.954;2023-07-24T13:33:42;23.00;99.90
60353;DHT22;46196;52.970;6.954;2023-07-24T13:36:08;22.70;99.90
60353;DHT22;46196;52.970;6.954;2023-07-24T13:38:34;22.60;99.90
60353;DHT22;46196;52.970;6.954;2023-07-24T13:41:00;22.40;99.90
60353;DHT22;46196;52.970;6.954;2023-07-24T13:43:27;22.20;99.90
60353;DHT22;46196;52.970;6.954;2023-07-24T13:45:53;21.90;99.90
60353;DHT22;46196;52.970;6.954;2023-07-24T13:48:19;21.60;99.90
60353;DHT22;46196;52.970;6.954;2023-07-24T13:50:45;21.20;99.90
60353;DHT22;46196;52.970;6.954;2023-07-24T13:53:10;21.10;99.90
60353;DHT22;46196;52.970;6.954;2023-07-24T13:55:37;19.70;99.90
60353;DHT22;46196;52.970;6.954;2023-07-24T13:58:03;20.70;99.90
60353;DHT22;46196;52.970;6.954;2023-07-24T14:00:29;20.50;99.90
60353;DHT22;46196;52.970;6.954;2023-07-24T14:02:55;18.70;99.90
60353;DHT22;46196;52.970;6.954;2023-07-24T14:05:21;20.90;99.90
60353;DHT22;46196;52.970;6.954;2023-07-24T14:07:46;19.60;99.90
60353;DHT22;46196;52.970;6.954;2023-07-24T14:10:12;20.40;99.90
60353;DHT22;46196;52.970;6.954;2023-07-24T14:12:38;18.80;99.90
60353;DHT22;46196;52.970;6.954;2023-07-24T14:15:04;19.40;99.90
60353;DHT22;46196;52.970;6.954;2023-07-24T14:17:29;19.40;99.90
60353;DHT22;46196;52.970;6.954;2023-07-24T14:19:55;19.10;99.90
60353;DHT22;46196;52.970;6.954;2023-07-24T14:22:21;20.40;99.90
60353;DHT22;46196;52.970;6.954;2023-07-24T14:24:47;19.10;99.90
60353;DHT22;46196;52.970;6.954;2023-07-24T14:27:13;19.50;99.90
60353;DHT22;46196;52.970;6.954;2023-07-24T14:29:39;18.40;99.90
60353;DHT22;46196;52.970;6.954;2023-07-24T14:32:06;19.00;99.90
60353;DHT22;46196;52.970;6.954;2023-07-24T14:34:32;18.90;99.90
60353;DHT22;46196;52.970;6.954;2023-07-24T14:36:57;18.90;99.90
60353;DHT22;46196;52.970;6.954;2023-07-24T14:39:23;18.40;99.90
60353;DHT22;46196;52.970;6.954;2023-07-24T14:41:49;18.80;99.90
60353;DHT22;46196;52.970;6.954;2023-07-24T14:44:15;19.30;99.90
60353;DHT22;46196;52.970;6.954;2023-07-24T14:49:06;18.80;99.90
60353;DHT22;46196;52.970;6.954;2023-07-24T14:51:32;18.50;99.90
60353;DHT22;46196;52.970;6.954;2023-07-24T14:53:58;18.70;99.90
60353;DHT22;46196;52.970;6.954;2023-07-24T14:56:24;18.70;99.90
60353;DHT22;46196;52.970;6.954;2023-07-24T14:58:50;18.80;99.90
60353;DHT22;46196;52.970;6.954;2023-07-24T15:01:16;18.70;99.90
60353;DHT22;46196;52.970;6.954;2023-07-24T15:03:41;18.60;99.90
60353;DHT22;46196;52.970;6.954;2023-07-24T15:06:07;18.80;99.90
60353;DHT22;46196;52.970;6.954;2023-07-24T15:08:34;19.00;99.90
60353;DHT22;46196;52.970;6.954;2023-07-24T15:11:00;17.80;99.90
60353;DHT22;46196;52.970;6.954;2023-07-24T15:13:25;18.70;99.90
60353;DHT22;46196;52.970;6.954;2023-07-24T15:15:51;18.80;99.90
60353;DHT22;46196;52.970;6.954;2023-07-24T15:18:17;19.10;99.90
60353;DHT22;46196;52.970;6.954;2023-07-24T15:20:43;19.90;99.90
60353;DHT22;46196;52.970;6.954;2023-07-24T15:25:34;19.30;99.90
60353;DHT22;46196;52.970;6.954;2023-07-24T15:28:00;19.10;99.90
60353;DHT22;46196;52.970;6.954;2023-07-24T15:30:26;19.40;99.90
60353;DHT22;46196;52.970;6.954;2023-07-24T15:32:51;19.60;99.90
60353;DHT22;46196;52.970;6.954;2023-07-24T15:35:17;19.80;99.90
60353;DHT22;46196;52.970;6.954;2023-07-24T15:37:43;19.60;99.90
60353;DHT22;46196;52.970;6.954;2023-07-24T15:40:09;19.70;99.90
60353;DHT22;46196;52.970;6.954;2023-07-24T15:42:36;19.50;99.90
60353;DHT22;46196;52.970;6.954;2023-07-24T15:45:02;20.00;99.90